Time;durP1;ratioP1;P1;durP2;ratioP2;P2;SDS_P1;SDS_P2;PMS_P1;PMS_P2;Temp;Humidity;BMP_temperature;BMP_pressure;BME280_temperature;BME280_humidity;BME280_pressure;Samples;Min_cycle;Max_cycle;Signal;HPM_P1;HPM_P2
2023/08/20 00:01:31;;;;;;;24.88;18.65;;;;;;;-146.82;100.00;71671.09;5088720;28;20102;-76
2023/08/20 00:03:57;;;;;;;21.83;19.20;;;;;;;-146.82;100.00;71671.09;5072762;28;20091;-77
2023/08/20 00:06:23;;;;;;;22.85;18.75;;;;;;;-146.82;100.00;71671.09;5092816;28;20484;-78
2023/08/20 00:08:49;;;;;;;22.35;19.63;;;;;;;-146.82;100.00;71671.09;5092936;28;20025;-77
2023/08/20 00:11:15;;;;;;;23.58;18.40;;;;;;;-146.82;100.00;71671.09;5076924;28;20047;-77
2023/08/20 00:13:41;;;;;;;25.50;19.50;;;;;;;-146.82;100.00;71671.09;5092974;28;20020;-77
2023/08/20 00:16:07;;;;;;;27.75;18.77;;;;;;;-146.82;100.00;71671.09;5076870;28;20031;-78
2023/08/20 00:18:33;;;;;;;25.02;18.55;;;;;;;-146.82;100.00;71671.09;5076898;28;20032;-78
2023/08/20 00:20:59;;;;;;;24.30;18.92;;;;;;;-146.82;100.00;71671.09;5092615;28;20435;-77
2023/08/20 00:23:25;;;;;;;23.70;19.20;;;;;;;-146.82;100.00;71671.09;5076943;28;20016;-77
2023/08/20 00:25:51;;;;;;;22.55;18.83;;;;;;;-146.82;100.00;71671.09;5076873;28;20452;-78
2023/08/20 00:28:16;;;;;;;25.25;18.90;;;;;;;-146.82;100.00;71671.09;5076880;28;20100;-78
2023/08/20 00:30:42;;;;;;;21.77;19.00;;;;;;;-146.82;100.00;71671.09;5075608;28;20015;-78
2023/08/20 00:33:07;;;;;;;22.35;17.75;;;;;;;-146.82;100.00;71671.09;5092135;28;20465;-77
2023/08/20 00:35:33;;;;;;;19.52;17.42;;;;;;;-146.82;100.00;71671.09;5075289;28;20047;-77
2023/08/20 00:37:58;;;;;;;20.98;17.63;;;;;;;-146.82;100.00;71671.09;5076760;28;20028;-77
2023/08/20 00:40:23;;;;;;;22.35;17.75;;;;;;;-146.82;100.00;71671.09;5076521;28;20488;-77
2023/08/20 00:42:49;;;;;;;21.48;18.38;;;;;;;-146.82;100.00;71671.09;5076545;28;20052;-77
2023/08/20 00:45:16;;;;;;;21.63;17.67;;;;;;;-146.82;100.00;71671.09;5076430;28;20422;-77
2023/08/20 00:47:42;;;;;;;22.13;17.83;;;;;;;-146.82;100.00;71671.09;5075058;28;20020;-76
2023/08/20 00:50:08;;;;;;;25.50;18.67;;;;;;;-146.82;100.00;71671.09;5076629;28;20492;-78
2023/08/20 00:52:34;;;;;;;26.30;18.80;;;;;;;-146.82;100.00;71671.09;5091934;28;20024;-77
2023/08/20 00:55:00;;;;;;;22.48;16.90;;;;;;;-146.82;100.00;71671.09;5091894;28;20424;-78
2023/08/20 00:57:26;;;;;;;24.60;17.50;;;;;;;-146.82;100.00;71671.09;5091975;28;20024;-78
2023/08/20 00:59:53;;;;;;;24.35;16.55;;;;;;;-146.82;100.00;71671.09;5076029;28;20024;-77
2023/08/20 01:02:18;;;;;;;21.55;16.70;;;;;;;-146.82;100.00;71671.09;5075066;28;20035;-78
2023/08/20 01:04:46;;;;;;;20.08;16.75;;;;;;;-146.82;100.00;71671.09;5075999;28;20048;-77
2023/08/20 01:07:21;;;;;;;21.30;16.35;;;;;;;-146.82;100.00;71671.09;5075978;28;20021;-77
2023/08/20 01:09:50;;;;;;;20.60;15.68;;;;;;;-146.82;100.00;71671.09;5076187;28;20074;-78
2023/08/20 01:12:17;;;;;;;25.95;15.30;;;;;;;-146.82;100.00;71671.09;5091534;28;20024;-77
2023/08/20 01:14:42;;;;;;;20.95;15.98;;;;;;;-146.82;100.00;71671.09;5091256;28;20027;-77
2023/08/20 01:17:07;;;;;;;21.23;17.60;;;;;;;-146.82;100.00;71671.09;5074474;28;20024;-77
2023/08/20 01:19:33;;;;;;;23.83;17.13;;;;;;;-146.82;100.00;71671.09;5074621;28;20036;-77
2023/08/20 01:22:36;;;;;;;24.23;17.70;;;;;;;-146.82;100.00;71671.09;5091502;28;20092;-76
2023/08/20 01:25:18;;;;;;;21.10;17.95;;;;;;;-146.82;100.00;71671.09;5075494;28;20036;-76
2023/08/20 01:28:20;;;;;;;23.83;17.52;;;;;;;-146.82;100.00;71671.09;5075877;28;20025;-77
2023/08/20 01:30:46;;;;;;;24.08;18.58;;;;;;;-146.82;100.00;71671.09;5061232;28;20098;-77
2023/08/20 01:33:14;;;;;;;24.75;17.83;;;;;;;-146.82;100.00;71671.09;5091324;28;20028;-77
2023/08/20 01:35:40;;;;;;;24.58;17.80;;;;;;;-146.82;100.00;71671.09;5090709;28;20056;-78
2023/08/20 01:38:05;;;;;;;23.58;18.65;;;;;;;-146.82;100.00;71671.09;5075750;28;20067;-77
2023/08/20 01:40:31;;;;;;;25.40;18.45;;;;;;;-146.82;100.00;71671.09;5074541;28;20489;-77
2023/08/20 01:42:57;;;;;;;23.98;18.73;;;;;;;-146.82;100.00;71671.09;5075364;28;20528;-76
2023/08/20 01:45:22;;;;;;;26.60;19.23;;;;;;;-146.82;100.00;71671.09;5091081;28;20034;-78
2023/08/20 01:47:48;;;;;;;22.70;18.80;;;;;;;-146.82;100.00;71671.09;5075469;28;20060;-78
2023/08/20 01:50:13;;;;;;;25.52;20.17;;;;;;;-146.82;100.00;71671.09;5075434;28;20043;-79
2023/08/20 01:52:39;;;;;;;32.25;22.92;;;;;;;-146.82;100.00;71671.09;5075335;28;20107;-77
2023/08/20 01:55:05;;;;;;;32.45;24.02;;;;;;;-146.82;100.00;71671.09;5075218;28;20031;-77
2023/08/20 01:57:31;;;;;;;24.83;21.35;;;;;;;-146.82;100.00;71671.09;5075172;28;20078;-76
2023/08/20 01:59:57;;;;;;;29.00;21.65;;;;;;;-146.82;100.00;71671.09;5074883;28;20024;-76
2023/08/20 02:02:23;;;;;;;30.55;22.05;;;;;;;-146.82;100.00;71671.09;5074810;28;20017;-76
2023/08/20 02:04:49;;;;;;;29.77;21.27;;;;;;;-146.82;100.00;71671.09;5074157;28;20089;-77
2023/08/20 02:07:14;;;;;;;28.60;22.08;;;;;;;-146.82;100.00;71671.09;5074148;28;20064;-77
2023/08/20 02:09:39;;;;;;;29.85;23.10;;;;;;;-146.82;100.00;71671.09;5074020;28;20032;-76
2023/08/20 02:12:05;;;;;;;27.05;20.20;;;;;;;-146.82;100.00;71671.09;5074082;28;20033;-77
2023/08/20 02:14:34;;;;;;;27.98;21.00;;;;;;;-146.82;100.00;71671.09;5073971;28;20473;-76
2023/08/20 02:17:00;;;;;;;26.63;19.45;;;;;;;-146.82;100.00;71671.09;5073905;28;20025;-76
2023/08/20 02:19:26;;;;;;;24.90;19.40;;;;;;;-146.82;100.00;71671.09;5072496;28;20346;-77
2023/08/20 02:21:51;;;;;;;27.83;18.88;;;;;;;-146.82;100.00;71671.09;5073580;28;20031;-77
2023/08/20 02:24:16;;;;;;;26.85;19.98;;;;;;;-146.82;100.00;71671.09;5072482;28;20043;-78
2023/08/20 02:26:42;;;;;;;27.20;20.55;;;;;;;-146.82;100.00;71671.09;5071781;28;20021;-76
2023/08/20 02:29:07;;;;;;;28.52;20.48;;;;;;;-146.82;100.00;71671.09;5072264;28;20078;-77
2023/08/20 02:31:32;;;;;;;27.52;21.17;;;;;;;-146.82;100.00;71671.09;5089340;28;20035;-76
2023/08/20 02:33:58;;;;;;;25.38;20.00;;;;;;;-146.82;100.00;71671.09;5072136;28;20042;-78
2023/08/20 02:36:23;;;;;;;29.10;21.33;;;;;;;-146.82;100.00;71671.09;5073659;28;20052;-76
2023/08/20 02:38:49;;;;;;;27.55;20.98;;;;;;;-146.82;100.00;71671.09;5073228;28;20029;-77
2023/08/20 02:41:15;;;;;;;26.05;20.20;;;;;;;-146.82;100.00;71671.09;5073316;28;20028;-77
2023/08/20 02:43:40;;;;;;;30.60;22.05;;;;;;;-146.82;100.00;71671.09;5073409;28;20093;-78
2023/08/20 02:46:06;;;;;;;30.65;22.23;;;;;;;-146.82;100.00;71671.09;5073443;28;20477;-76
2023/08/20 02:48:31;;;;;;;27.90;21.25;;;;;;;-146.82;100.00;71671.09;5073109;28;20846;-77
2023/08/20 02:50:56;;;;;;;29.13;21.38;;;;;;;-146.82;100.00;71671.09;5073406;28;20026;-77
2023/08/20 02:53:22;;;;;;;27.30;22.10;;;;;;;-146.82;100.00;71671.09;5073140;28;20024;-75
2023/08/20 02:55:48;;;;;;;28.45;21.90;;;;;;;-146.82;100.00;71671.09;5073089;28;20025;-76
2023/08/20 02:58:13;;;;;;;30.50;21.98;;;;;;;-146.82;100.00;71671.09;5073142;28;20029;-77
2023/08/20 03:00:39;;;;;;;31.80;23.48;;;;;;;-146.82;100.00;71671.09;5088733;28;20077;-77
2023/08/20 03:03:07;;;;;;;32.25;22.38;;;;;;;-146.82;100.00;71671.09;5072842;28;20032;-77
2023/08/20 03:05:33;;;;;;;29.98;22.45;;;;;;;-146.82;100.00;71671.09;5026353;28;1317041;-77
2023/08/20 03:07:58;;;;;;;28.20;20.10;;;;;;;-146.82;100.00;71671.09;5072543;28;20040;-76
2023/08/20 03:10:23;;;;;;;26.23;20.00;;;;;;;-146.82;100.00;71671.09;5072447;28;20035;-76
2023/08/20 03:12:49;;;;;;;30.98;21.73;;;;;;;-146.82;100.00;71671.09;5073857;28;20024;-76
2023/08/20 03:15:14;;;;;;;29.35;20.95;;;;;;;-146.82;100.00;71671.09;5072556;28;20032;-77
2023/08/20 03:17:40;;;;;;;33.60;22.55;;;;;;;-146.82;100.00;71671.09;5073388;28;20033;-76
2023/08/20 03:20:06;;;;;;;28.40;21.90;;;;;;;-146.82;100.00;71671.09;5073734;28;20056;-77
2023/08/20 03:22:32;;;;;;;30.55;21.25;;;;;;;-146.82;100.00;71671.09;5073870;28;20174;-78
2023/08/20 03:24:57;;;;;;;28.88;21.70;;;;;;;-146.82;100.00;71671.09;5072692;28;20468;-77
2023/08/20 03:27:23;;;;;;;28.63;20.55;;;;;;;-146.82;100.00;71671.09;5073657;28;20020;-76
2023/08/20 03:29:48;;;;;;;30.52;20.52;;;;;;;-146.82;100.00;71671.09;5073561;28;20043;-77
2023/08/20 03:32:14;;;;;;;29.80;22.08;;;;;;;-146.82;100.00;71671.09;5073500;28;20469;-76
2023/08/20 03:34:39;;;;;;;29.38;21.48;;;;;;;-146.82;100.00;71671.09;5072188;28;20385;-78
2023/08/20 03:37:04;;;;;;;30.65;22.58;;;;;;;-146.82;100.00;71671.09;5073649;28;20031;-78
2023/08/20 03:39:33;;;;;;;27.35;20.83;;;;;;;-146.82;100.00;71671.09;5072262;28;20369;-77
2023/08/20 03:41:59;;;;;;;26.38;20.90;;;;;;;-146.82;100.00;71671.09;5073360;28;20055;-78
2023/08/20 03:44:24;;;;;;;26.38;20.70;;;;;;;-146.82;100.00;71671.09;5072151;28;20493;-77
2023/08/20 03:46:49;;;;;;;28.75;20.90;;;;;;;-146.82;100.00;71671.09;5089056;28;20480;-78
2023/08/20 03:49:15;;;;;;;28.08;22.08;;;;;;;-146.82;100.00;71671.09;5089198;28;20082;-77
2023/08/20 03:51:42;;;;;;;27.13;21.48;;;;;;;-146.82;100.00;71671.09;5073283;28;20017;-77
2023/08/20 03:54:08;;;;;;;31.67;22.58;;;;;;;-146.82;100.00;71671.09;5073277;28;20107;-76
2023/08/20 03:56:33;;;;;;;25.65;20.67;;;;;;;-146.82;100.00;71671.09;5073630;28;20127;-76
2023/08/20 03:58:58;;;;;;;29.88;20.85;;;;;;;-146.82;100.00;71671.09;5073395;28;20078;-77
2023/08/20 04:01:24;;;;;;;27.05;20.58;;;;;;;-146.82;100.00;71671.09;5072878;28;20036;-77
2023/08/20 04:03:49;;;;;;;23.42;18.65;;;;;;;-146.82;100.00;71671.09;5071711;28;20040;-77
2023/08/20 04:06:15;;;;;;;25.27;20.75;;;;;;;-146.82;100.00;71671.09;5088761;28;20457;-76
2023/08/20 04:08:40;;;;;;;29.10;19.65;;;;;;;-146.82;100.00;71671.09;5071708;28;20065;-77
2023/08/20 04:11:06;;;;;;;25.98;20.00;;;;;;;-146.82;100.00;71671.09;5073424;28;20426;-78
2023/08/20 04:13:31;;;;;;;29.05;21.80;;;;;;;-146.82;100.00;71671.09;5073326;28;20067;-79
2023/08/20 04:15:57;;;;;;;29.80;21.02;;;;;;;-146.82;100.00;71671.09;5072859;28;20373;-77
2023/08/20 04:18:22;;;;;;;23.27;19.25;;;;;;;-146.82;100.00;71671.09;5073278;28;20020;-77
2023/08/20 04:20:51;;;;;;;24.27;20.48;;;;;;;-146.82;100.00;71671.09;5073136;28;20029;-77
2023/08/20 04:23:16;;;;;;;23.35;18.90;;;;;;;-146.82;100.00;71671.09;5071795;28;20040;-77
2023/08/20 04:25:41;;;;;;;26.02;18.58;;;;;;;-146.82;100.00;71671.09;5073038;28;20031;-78
2023/08/20 04:28:07;;;;;;;22.65;17.42;;;;;;;-146.82;100.00;71671.09;5073014;28;20485;-78
2023/08/20 04:30:34;;;;;;;23.13;16.48;;;;;;;-146.82;100.00;71671.09;5073012;28;20027;-77
2023/08/20 04:33:00;;;;;;;20.65;16.92;;;;;;;-146.82;100.00;71671.09;5072927;28;20113;-76
2023/08/20 04:35:25;;;;;;;23.00;15.77;;;;;;;-146.82;100.00;71671.09;5072990;28;20072;-77
2023/08/20 04:37:51;;;;;;;23.63;16.95;;;;;;;-146.82;100.00;71671.09;5072780;28;20036;-76
2023/08/20 04:40:16;;;;;;;20.67;16.33;;;;;;;-146.82;100.00;71671.09;5072685;28;20103;-76
2023/08/20 04:42:41;;;;;;;20.60;15.85;;;;;;;-146.82;100.00;71671.09;5071455;28;20042;-79
2023/08/20 04:45:08;;;;;;;22.33;16.48;;;;;;;-146.82;100.00;71671.09;5072753;28;20063;-77
2023/08/20 04:47:33;;;;;;;19.10;14.93;;;;;;;-146.82;100.00;71671.09;5072641;28;20115;-77
2023/08/20 04:49:59;;;;;;;20.17;14.70;;;;;;;-146.82;100.00;71671.09;5089222;28;20103;-77
2023/08/20 04:52:24;;;;;;;20.17;14.98;;;;;;;-146.82;100.00;71671.09;5076589;28;20017;-77
2023/08/20 04:54:49;;;;;;;18.92;15.25;;;;;;;-146.82;100.00;71671.09;5091952;28;20035;-77
2023/08/20 04:57:16;;;;;;;19.38;16.88;;;;;;;-146.82;100.00;71671.09;5075089;28;20025;-76
2023/08/20 04:59:45;;;;;;;18.67;15.30;;;;;;;-146.82;100.00;71671.09;5075998;28;20039;-79
2023/08/20 05:02:11;;;;;;;19.40;15.45;;;;;;;-146.82;100.00;71671.09;5076559;28;20055;-78
2023/08/20 05:04:36;;;;;;;20.20;15.05;;;;;;;-146.82;100.00;71671.09;5076041;28;20501;-78
2023/08/20 05:07:03;;;;;;;18.98;16.02;;;;;;;-146.82;100.00;71671.09;5076267;28;20025;-78
2023/08/20 05:09:28;;;;;;;18.67;15.95;;;;;;;-146.82;100.00;71671.09;5074741;28;20107;-78
2023/08/20 05:11:54;;;;;;;19.55;15.77;;;;;;;-146.82;100.00;71671.09;5091749;28;20548;-79
2023/08/20 05:14:19;;;;;;;19.33;14.95;;;;;;;-146.82;100.00;71671.09;5075770;28;20040;-76
2023/08/20 05:16:44;;;;;;;21.60;15.73;;;;;;;-146.82;100.00;71671.09;5075824;28;20039;-77
2023/08/20 05:19:10;;;;;;;20.27;14.55;;;;;;;-146.82;100.00;71671.09;5075739;28;20035;-76
2023/08/20 05:21:35;;;;;;;21.20;15.57;;;;;;;-146.82;100.00;71671.09;5075746;28;20108;-77
2023/08/20 05:24:01;;;;;;;20.15;15.60;;;;;;;-146.82;100.00;71671.09;5091303;28;20033;-76
2023/08/20 05:26:26;;;;;;;17.15;14.52;;;;;;;-146.82;100.00;71671.09;5075597;28;20078;-77
2023/08/20 05:28:52;;;;;;;16.60;14.48;;;;;;;-146.82;100.00;71671.09;5091364;28;20033;-78
2023/08/20 05:31:17;;;;;;;20.48;14.95;;;;;;;-146.82;100.00;71671.09;5075821;28;20462;-76
2023/08/20 05:33:42;;;;;;;21.45;14.63;;;;;;;-146.82;100.00;71671.09;5091326;28;20082;-75
2023/08/20 05:36:08;;;;;;;17.58;14.38;;;;;;;-146.82;100.00;71671.09;5074200;28;20020;-77
2023/08/20 05:38:33;;;;;;;18.23;13.95;;;;;;;-146.82;100.00;71671.09;5075552;28;20017;-77
2023/08/20 05:40:58;;;;;;;15.88;14.18;;;;;;;-146.82;100.00;71671.09;5075352;28;20466;-78
2023/08/20 05:43:24;;;;;;;19.80;14.32;;;;;;;-146.82;100.00;71671.09;5075443;28;20351;-77
2023/08/20 05:45:49;;;;;;;18.05;13.95;;;;;;;-146.82;100.00;71671.09;5075496;28;20382;-77
2023/08/20 05:48:15;;;;;;;16.58;13.68;;;;;;;-146.82;100.00;71671.09;5075674;28;20318;-77
2023/08/20 05:50:40;;;;;;;15.65;13.27;;;;;;;-146.82;100.00;71671.09;5075149;28;20074;-77
2023/08/20 05:53:05;;;;;;;18.95;14.30;;;;;;;-146.82;100.00;71671.09;5073895;28;20025;-77
2023/08/20 05:55:31;;;;;;;14.82;13.23;;;;;;;-146.82;100.00;71671.09;5075033;28;20078;-76
2023/08/20 05:57:56;;;;;;;15.68;13.75;;;;;;;-146.82;100.00;71671.09;5074869;28;20026;-76
2023/08/20 06:00:22;;;;;;;16.80;13.93;;;;;;;-146.82;100.00;71671.09;5075056;28;20024;-77
2023/08/20 06:02:47;;;;;;;16.65;13.50;;;;;;;-146.82;100.00;71671.09;5074100;28;20466;-77
2023/08/20 06:05:12;;;;;;;16.13;13.75;;;;;;;-146.82;100.00;71671.09;5074903;28;20398;-78
2023/08/20 06:07:38;;;;;;;17.77;13.82;;;;;;;-146.82;100.00;71671.09;5074883;28;20016;-78
2023/08/20 06:10:05;;;;;;;14.68;13.18;;;;;;;-146.82;100.00;71671.09;5075235;28;20020;-78
2023/08/20 06:12:30;;;;;;;15.25;13.65;;;;;;;-146.82;100.00;71671.09;5073561;28;20048;-76
2023/08/20 06:14:56;;;;;;;15.93;13.15;;;;;;;-146.82;100.00;71671.09;5075041;28;20457;-78
2023/08/20 06:17:21;;;;;;;14.02;12.27;;;;;;;-146.82;100.00;71671.09;5074822;28;20099;-76
2023/08/20 06:19:46;;;;;;;13.38;12.02;;;;;;;-146.82;100.00;71671.09;5074682;28;20429;-76
2023/08/20 06:22:12;;;;;;;15.68;12.55;;;;;;;-146.82;100.00;71671.09;5090274;28;20028;-77
2023/08/20 06:24:37;;;;;;;14.50;12.77;;;;;;;-146.82;100.00;71671.09;5074627;28;20097;-78
2023/08/20 06:27:03;;;;;;;14.10;11.68;;;;;;;-146.82;100.00;71671.09;5074557;28;20318;-77
2023/08/20 06:29:28;;;;;;;13.48;11.00;;;;;;;-146.82;100.00;71671.09;5090232;28;20086;-78
2023/08/20 06:31:54;;;;;;;14.38;12.05;;;;;;;-146.82;100.00;71671.09;5074610;28;20025;-78
2023/08/20 06:34:19;;;;;;;13.40;11.55;;;;;;;-146.82;100.00;71671.09;5074808;28;20021;-76
2023/08/20 06:36:45;;;;;;;13.02;11.73;;;;;;;-146.82;100.00;71671.09;5074587;28;20021;-78
2023/08/20 06:39:10;;;;;;;12.50;11.20;;;;;;;-146.82;100.00;71671.09;5074412;28;20021;-77
2023/08/20 06:41:36;;;;;;;14.30;10.00;;;;;;;-146.82;100.00;71671.09;5074252;28;20051;-76
2023/08/20 06:44:02;;;;;;;13.43;9.23;;;;;;;-146.82;100.00;71671.09;5074299;28;20066;-79
2023/08/20 06:46:28;;;;;;;12.88;8.00;;;;;;;-146.82;100.00;71671.09;5074550;28;20028;-77
2023/08/20 06:48:53;;;;;;;9.48;8.23;;;;;;;-146.82;100.00;71671.09;5074264;28;20021;-75
2023/08/20 06:51:20;;;;;;;10.50;6.97;;;;;;;-146.82;100.00;71671.09;5056055;28;20023;-77
2023/08/20 06:53:46;;;;;;;10.30;7.30;;;;;;;-146.82;100.00;71671.09;5072750;28;20028;-77
2023/08/20 06:56:11;;;;;;;7.57;6.97;;;;;;;-146.82;100.00;71671.09;5074178;28;20470;-76
2023/08/20 06:58:41;;;;;;;7.93;6.30;;;;;;;-146.82;100.00;71671.09;5074098;28;20024;-77
2023/08/20 07:01:07;;;;;;;8.65;7.22;;;;;;;-146.82;100.00;71671.09;5089748;28;20031;-77
2023/08/20 07:03:43;;;;;;;8.73;6.43;;;;;;;-146.82;100.00;71671.09;5073699;28;20021;-77
2023/08/20 07:06:10;;;;;;;8.07;6.70;;;;;;;-146.82;100.00;71671.09;5073860;28;20028;-76
2023/08/20 07:08:36;;;;;;;6.70;6.07;;;;;;;-146.82;100.00;71671.09;5072749;28;20017;-77
2023/08/20 07:11:02;;;;;;;9.07;6.22;;;;;;;-146.82;100.00;71671.09;5055691;28;20020;-77
2023/08/20 07:13:28;;;;;;;6.50;5.93;;;;;;;-146.82;100.00;71671.09;5073791;28;20043;-76
2023/08/20 07:15:54;;;;;;;6.28;5.78;;;;;;;-146.82;100.00;71671.09;5073707;28;20078;-77
2023/08/20 07:18:19;;;;;;;7.70;6.15;;;;;;;-146.82;100.00;71671.09;5073993;28;20111;-78
2023/08/20 07:20:45;;;;;;;7.85;7.05;;;;;;;-146.82;100.00;71671.09;5073851;28;20107;-77
2023/08/20 07:23:11;;;;;;;6.03;5.45;;;;;;;-146.82;100.00;71671.09;5089245;28;20013;-79
2023/08/20 07:25:37;;;;;;;5.88;5.43;;;;;;;-146.82;100.00;71671.09;5073379;28;20143;-76
2023/08/20 07:28:06;;;;;;;6.95;6.20;;;;;;;-146.82;100.00;71671.09;5073911;28;20077;-78
2023/08/20 07:30:32;;;;;;;7.40;6.20;;;;;;;-146.82;100.00;71671.09;5073689;28;20031;-78
2023/08/20 07:32:57;;;;;;;6.80;6.20;;;;;;;-146.82;100.00;71671.09;5073576;28;20440;-76
2023/08/20 07:35:23;;;;;;;6.93;5.80;;;;;;;-146.82;100.00;71671.09;5073453;28;20024;-78
2023/08/20 07:37:49;;;;;;;8.07;5.45;;;;;;;-146.82;100.00;71671.09;5073252;28;20051;-76
2023/08/20 07:40:14;;;;;;;6.60;6.00;;;;;;;-146.82;100.00;71671.09;5089174;28;20077;-78
2023/08/20 07:42:43;;;;;;;7.75;6.35;;;;;;;-146.82;100.00;71671.09;5073600;28;20497;-77
2023/08/20 07:45:09;;;;;;;8.55;6.70;;;;;;;-146.82;100.00;71671.09;5073300;28;20056;-77
2023/08/20 07:47:36;;;;;;;6.93;6.32;;;;;;;-146.82;100.00;71671.09;5071975;28;20106;-77
2023/08/20 07:50:01;;;;;;;7.25;5.80;;;;;;;-146.82;100.00;71671.09;5073396;28;20031;-77
2023/08/20 07:52:27;;;;;;;6.10;5.50;;;;;;;-146.82;100.00;71671.09;5073230;28;20020;-77
2023/08/20 07:54:52;;;;;;;6.65;5.97;;;;;;;-146.82;100.00;71671.09;5088768;28;20016;-76
2023/08/20 07:57:17;;;;;;;8.30;5.90;;;;;;;-146.82;100.00;71671.09;5073172;28;20039;-77
2023/08/20 07:59:43;;;;;;;6.70;6.03;;;;;;;-146.82;100.00;71671.09;5073258;28;20114;-77
2023/08/20 08:02:08;;;;;;;7.53;5.45;;;;;;;-146.82;100.00;71671.09;5073388;28;20025;-76
2023/08/20 08:04:34;;;;;;;6.85;6.15;;;;;;;-146.82;100.00;71671.09;5073125;28;20164;-76
2023/08/20 08:07:00;;;;;;;9.30;6.35;;;;;;;-146.82;100.00;71671.09;5073089;28;20028;-77
2023/08/20 08:09:30;;;;;;;7.13;6.05;;;;;;;-146.82;100.00;71671.09;5073103;28;20028;-77
2023/08/20 08:11:57;;;;;;;7.32;6.65;;;;;;;-146.82;100.00;71671.09;5073068;28;20016;-76
2023/08/20 08:14:23;;;;;;;6.93;6.32;;;;;;;-146.82;100.00;71671.09;5072949;28;20021;-76
2023/08/20 08:16:48;;;;;;;6.78;6.18;;;;;;;-146.82;100.00;71671.09;5073182;28;20024;-77
2023/08/20 08:19:14;;;;;;;6.90;6.35;;;;;;;-146.82;100.00;71671.09;5072990;28;20410;-76
2023/08/20 08:21:41;;;;;;;7.00;6.25;;;;;;;-146.82;100.00;71671.09;5073042;28;20020;-76
2023/08/20 08:24:06;;;;;;;7.70;6.10;;;;;;;-146.82;100.00;71671.09;5073188;28;20098;-77
2023/08/20 08:26:33;;;;;;;6.18;5.57;;;;;;;-146.82;100.00;71671.09;5076901;28;20489;-76
2023/08/20 08:28:59;;;;;;;6.65;6.13;;;;;;;-146.82;100.00;71671.09;5076764;28;20024;-77
2023/08/20 08:31:24;;;;;;;6.53;6.05;;;;;;;-146.82;100.00;71671.09;5076973;28;20019;-77
2023/08/20 08:33:50;;;;;;;7.82;6.10;;;;;;;-146.82;100.00;71671.09;5076840;28;20358;-76
2023/08/20 08:36:16;;;;;;;9.75;6.30;;;;;;;-146.82;100.00;71671.09;5076530;28;20025;-78
2023/08/20 08:38:42;;;;;;;6.78;5.75;;;;;;;-146.82;100.00;71671.09;5076743;28;20059;-78
2023/08/20 08:41:10;;;;;;;5.82;5.25;;;;;;;-146.82;100.00;71671.09;5076358;28;20024;-77
2023/08/20 08:43:37;;;;;;;5.10;4.70;;;;;;;-146.82;100.00;71671.09;5075215;28;20025;-76
2023/08/20 08:46:06;;;;;;;5.28;4.78;;;;;;;-146.82;100.00;71671.09;5075148;28;20016;-78
2023/08/20 08:48:31;;;;;;;6.47;5.57;;;;;;;-146.82;100.00;71671.09;5075271;28;20029;-77
2023/08/20 08:50:57;;;;;;;6.32;5.07;;;;;;;-146.82;100.00;71671.09;5076536;28;20024;-77
2023/08/20 08:53:25;;;;;;;9.02;5.07;;;;;;;-146.82;100.00;71671.09;5076536;28;20420;-80
2023/08/20 08:55:50;;;;;;;6.63;4.90;;;;;;;-146.82;100.00;71671.09;5076116;28;20032;-75
2023/08/20 08:58:15;;;;;;;9.07;5.28;;;;;;;-146.82;100.00;71671.09;5075016;28;20025;-77
2023/08/20 09:00:41;;;;;;;6.68;5.82;;;;;;;-146.82;100.00;71671.09;5091792;28;20115;-77
2023/08/20 09:03:06;;;;;;;6.80;5.88;;;;;;;-146.82;100.00;71671.09;5076430;28;20029;-77
2023/08/20 09:05:32;;;;;;;6.95;5.93;;;;;;;-146.82;100.00;71671.09;5075744;28;20076;-77
2023/08/20 09:07:57;;;;;;;11.20;5.97;;;;;;;-146.82;100.00;71671.09;5074759;28;20066;-77
2023/08/20 09:10:26;;;;;;;8.15;5.97;;;;;;;-146.82;100.00;71671.09;5074633;28;20016;-77
2023/08/20 09:12:54;;;;;;;5.95;5.35;;;;;;;-146.82;100.00;71671.09;5076010;28;20103;-78
2023/08/20 09:15:19;;;;;;;7.60;6.15;;;;;;;-146.82;100.00;71671.09;5074594;28;20529;-77
2023/08/20 09:17:46;;;;;;;6.53;5.65;;;;;;;-146.82;100.00;71671.09;5075815;28;20052;-77
2023/08/20 09:20:12;;;;;;;6.47;5.95;;;;;;;-146.82;100.00;71671.09;5075634;28;20028;-77
2023/08/20 09:22:37;;;;;;;6.68;5.90;;;;;;;-146.82;100.00;71671.09;5075783;28;20423;-78
2023/08/20 09:25:03;;;;;;;6.28;5.68;;;;;;;-146.82;100.00;71671.09;5075768;28;20031;-77
2023/08/20 09:27:29;;;;;;;7.07;5.57;;;;;;;-146.82;100.00;71671.09;5091618;28;20472;-76
2023/08/20 09:29:59;;;;;;;6.80;5.82;;;;;;;-146.82;100.00;71671.09;5075734;28;20068;-76
2023/08/20 09:32:27;;;;;;;7.18;6.50;;;;;;;-146.82;100.00;71671.09;5091034;28;20060;-77
2023/08/20 09:34:54;;;;;;;7.20;6.30;;;;;;;-146.82;100.00;71671.09;5075826;28;20028;-78
2023/08/20 09:37:22;;;;;;;9.48;6.75;;;;;;;-146.82;100.00;71671.09;5091114;28;20028;-78
2023/08/20 09:39:47;;;;;;;7.47;6.65;;;;;;;-146.82;100.00;71671.09;5075547;28;20033;-77
2023/08/20 09:42:13;;;;;;;6.32;5.60;;;;;;;-146.82;100.00;71671.09;5075523;28;20032;-77
2023/08/20 09:44:41;;;;;;;7.68;6.60;;;;;;;-146.82;100.00;71671.09;5075373;28;20058;-78
2023/08/20 09:47:08;;;;;;;8.10;6.90;;;;;;;-146.82;100.00;71671.09;5075304;28;20070;-77
2023/08/20 09:49:41;;;;;;;7.90;6.50;;;;;;;-146.82;100.00;71671.09;5075557;28;20029;-77
2023/08/20 09:52:08;;;;;;;11.18;7.63;;;;;;;-146.82;100.00;71671.09;5075542;28;20092;-78
2023/08/20 09:54:45;;;;;;;11.63;6.88;;;;;;;-146.82;100.00;71671.09;5075242;28;20495;-78
2023/08/20 09:57:23;;;;;;;9.32;6.90;;;;;;;-146.82;100.00;71671.09;5075361;28;20029;-77
2023/08/20 09:59:49;;;;;;;10.20;7.55;;;;;;;-146.82;100.00;71671.09;5075198;28;20393;-77
2023/08/20 10:02:14;;;;;;;9.30;7.28;;;;;;;-146.82;100.00;71671.09;5074052;28;20025;-77
2023/08/20 10:04:41;;;;;;;8.38;7.03;;;;;;;-146.82;100.00;71671.09;5074716;28;20549;-77
2023/08/20 10:07:07;;;;;;;8.25;6.95;;;;;;;-146.82;100.00;71671.09;5073608;28;20028;-77
2023/08/20 10:09:33;;;;;;;8.02;6.65;;;;;;;-146.82;100.00;71671.09;5074838;28;20020;-77
2023/08/20 10:11:58;;;;;;;9.85;7.65;;;;;;;-146.82;100.00;71671.09;5073427;28;20031;-77
2023/08/20 10:14:23;;;;;;;8.32;7.40;;;;;;;-146.82;100.00;71671.09;5074651;28;20421;-79
2023/08/20 10:16:49;;;;;;;10.43;7.13;;;;;;;-146.82;100.00;71671.09;5074861;28;20043;-77
2023/08/20 10:19:16;;;;;;;9.10;7.50;;;;;;;-146.82;100.00;71671.09;5073297;28;20029;-77
2023/08/20 10:21:49;;;;;;;9.63;6.93;;;;;;;-146.82;100.00;71671.09;5074532;28;20107;-78
2023/08/20 10:24:21;;;;;;;6.93;6.32;;;;;;;-146.82;100.00;71671.09;5074764;28;20028;-78
2023/08/20 10:26:48;;;;;;;7.63;6.88;;;;;;;-146.82;100.00;71671.09;5073657;28;20040;-77
2023/08/20 10:29:41;;;;;;;7.80;7.05;;;;;;;-146.82;100.00;71671.09;5074606;28;20108;-77
2023/08/20 10:32:13;;;;;;;7.25;6.60;;;;;;;-146.82;100.00;71671.09;5070290;28;20498;-77
2023/08/20 10:34:42;;;;;;;7.63;6.80;;;;;;;-146.82;100.00;71671.09;5074497;28;20032;-79
2023/08/20 10:37:12;;;;;;;8.05;6.97;;;;;;;-146.82;100.00;71671.09;5074315;28;20169;-80
2023/08/20 10:39:38;;;;;;;9.63;7.85;;;;;;;-146.82;100.00;71671.09;5074911;28;20066;-77
2023/08/20 10:42:33;;;;;;;9.43;7.80;;;;;;;-146.82;100.00;71671.09;5074491;28;20059;-76
2023/08/20 10:45:05;;;;;;;8.05;7.25;;;;;;;-146.82;100.00;71671.09;5064191;28;20051;-76
2023/08/20 10:47:44;;;;;;;9.05;6.47;;;;;;;-146.82;100.00;71671.09;5073579;28;20468;-76
2023/08/20 10:50:11;;;;;;;9.50;7.57;;;;;;;-146.82;100.00;71671.09;5073985;28;20032;-77
2023/08/20 10:52:48;;;;;;;9.93;7.30;;;;;;;-146.82;100.00;71671.09;5074230;28;20098;-77
2023/08/20 10:55:14;;;;;;;8.32;7.63;;;;;;;-146.82;100.00;71671.09;5074363;28;20032;-77
2023/08/20 10:57:40;;;;;;;7.18;6.47;;;;;;;-146.82;100.00;71671.09;5074123;28;20085;-78